Terminal Aerodrome Forecast
Issued by NWS Brownsville, TX

Home | Current Version | Previous Version | Text Only | Print | Product List | Glossary On
Versions: 1 2 3 4 5 6 7 8 9 10 11 12 13 14 15 16 17 18 19 20 21
000
FTUS44 KBRO 060522
TAFBRO
TAF
KBRO 060522Z 0606/0706 13015KT P6SM BKN012
     FM061500 14015G22KT P6SM SCT015 BKN030
     FM062100 13016G23KT P6SM SCT030 BKN050
     FM070200 13012KT P6SM BKN015=

USA.gov is the U.S. government's official web portal to all federal, state and local government web resources and services.